Time;durP1;ratioP1;P1;durP2;ratioP2;P2;SDS_P1;SDS_P2;PMS_P1;PMS_P2;Temp;Humidity;BMP_temperature;BMP_pressure;BME280_temperature;BME280_humidity;BME280_pressure;Samples;Min_cycle;Max_cycle;Signal;HPM_P1;HPM_P2
2023/04/21 00:02:48;;;;;;;16.90;11.60;;;;;;;9.73;100.00;94355.28;10425408;28;20021;-71
2023/04/21 00:07:49;;;;;;;18.90;10.45;;;;;;;9.68;100.00;94349.16;10425191;28;20033;-71
2023/04/21 00:12:49;;;;;;;17.02;10.32;;;;;;;9.62;100.00;94336.84;10425034;28;20203;-71
2023/04/21 00:17:50;;;;;;;16.65;9.13;;;;;;;9.55;100.00;94342.50;10423160;28;20056;-71
2023/04/21 00:22:57;;;;;;;18.25;9.60;;;;;;;9.55;100.00;94340.63;10425009;28;20113;-71
2023/04/21 00:27:57;;;;;;;22.05;10.07;;;;;;;9.51;100.00;94344.13;10424398;28;20025;-72
2023/04/21 00:32:58;;;;;;;26.60;12.53;;;;;;;9.46;100.00;94347.66;10424245;28;20029;-71
2023/04/21 00:37:58;;;;;;;25.65;14.77;;;;;;;9.29;100.00;94341.81;10424414;28;20271;-71
2023/04/21 00:42:59;;;;;;;31.37;16.90;;;;;;;9.25;100.00;94352.28;10423854;28;20091;-71
2023/04/21 00:47:59;;;;;;;33.47;16.52;;;;;;;9.17;100.00;94348.31;10407348;28;20272;-71
2023/04/21 00:53:00;;;;;;;30.30;16.60;;;;;;;8.81;100.00;94351.06;10401819;28;20457;-71
2023/04/21 00:58:02;;;;;;;30.80;17.52;;;;;;;8.84;100.00;94342.47;10404129;28;20650;-70
2023/04/21 01:03:04;;;;;;;30.48;17.52;;;;;;;8.79;100.00;94339.00;10424715;28;20548;-71
2023/04/21 01:08:05;;;;;;;31.42;18.63;;;;;;;8.69;100.00;94348.69;10439807;28;20115;-71
2023/04/21 01:13:06;;;;;;;27.73;15.55;;;;;;;8.59;100.00;94334.50;10431800;28;20021;-71
2023/04/21 01:18:06;;;;;;;33.57;17.70;;;;;;;8.55;100.00;94342.28;10431435;28;20553;-71
2023/04/21 01:23:06;;;;;;;34.63;17.67;;;;;;;8.47;100.00;94334.78;10431138;28;20354;-71
2023/04/21 01:28:07;;;;;;;32.33;18.27;;;;;;;8.47;100.00;94340.94;10431420;28;20036;-71
2023/04/21 01:33:07;;;;;;;28.30;16.67;;;;;;;8.42;100.00;94340.91;10431125;28;20408;-71
2023/04/21 01:38:17;;;;;;;21.23;12.82;;;;;;;8.42;100.00;94335.56;10430719;28;20056;-71
2023/04/21 01:43:21;;;;;;;20.00;9.80;;;;;;;8.45;100.00;94331.56;10430716;28;20507;-71
2023/04/21 01:48:21;;;;;;;28.48;17.05;;;;;;;8.46;100.00;94333.97;10429390;28;20452;-71
2023/04/21 01:53:22;;;;;;;26.25;14.35;;;;;;;8.38;100.00;94332.59;10417328;28;20032;-71
2023/04/21 01:58:22;;;;;;;28.02;13.32;;;;;;;8.33;100.00;94331.81;10425895;28;20178;-71
2023/04/21 02:03:23;;;;;;;25.40;14.05;;;;;;;8.26;100.00;94337.47;10429821;28;20025;-70
2023/04/21 02:08:23;;;;;;;23.58;12.70;;;;;;;8.28;100.00;94334.50;10428937;28;20052;-71
2023/04/21 02:13:23;;;;;;;30.08;15.68;;;;;;;8.20;100.00;94333.16;10429428;28;20062;-71
2023/04/21 02:18:24;;;;;;;22.52;12.43;;;;;;;8.20;100.00;94328.63;10429303;28;20048;-71
2023/04/21 02:23:25;;;;;;;17.45;10.50;;;;;;;8.11;100.00;94324.88;10429466;28;20407;-71
2023/04/21 02:28:25;;;;;;;19.70;10.77;;;;;;;8.16;100.00;94329.41;10428606;28;20040;-71
2023/04/21 02:33:26;;;;;;;18.10;9.73;;;;;;;8.11;100.00;94324.06;10428911;28;20287;-70
2023/04/21 02:38:26;;;;;;;17.48;8.88;;;;;;;7.99;100.00;94322.44;10428924;28;20566;-71
2023/04/21 02:43:27;;;;;;;15.05;8.75;;;;;;;8.06;100.00;94313.34;10428303;28;20040;-71
2023/04/21 02:48:27;;;;;;;16.85;8.50;;;;;;;8.18;100.00;94322.72;10428215;28;20091;-71
2023/04/21 02:53:28;;;;;;;14.43;8.70;;;;;;;8.31;100.00;94325.94;10428205;28;20047;-70
2023/04/21 02:58:28;;;;;;;14.93;8.68;;;;;;;8.39;100.00;94334.22;10409438;28;20025;-71
2023/04/21 03:03:29;;;;;;;15.63;9.50;;;;;;;8.54;100.00;94321.94;10427647;28;20017;-70
2023/04/21 03:08:31;;;;;;;19.80;9.38;;;;;;;8.71;100.00;94327.78;10427411;28;20689;-71
2023/04/21 03:13:31;;;;;;;18.45;9.43;;;;;;;8.82;100.00;94317.03;10409264;28;20399;-70
2023/04/21 03:18:35;;;;;;;13.03;9.07;;;;;;;8.94;100.00;94319.44;10427149;28;20052;-70
2023/04/21 03:23:35;;;;;;;18.55;9.52;;;;;;;9.02;100.00;94327.69;10426932;28;20287;-71
2023/04/21 03:28:35;;;;;;;19.80;9.03;;;;;;;9.14;100.00;94326.59;10426674;28;20025;-69
2023/04/21 03:33:36;;;;;;;13.48;9.00;;;;;;;9.24;100.00;94331.94;10426527;28;20288;-71
2023/04/21 03:38:36;;;;;;;28.60;13.30;;;;;;;9.32;100.00;94328.69;10425938;28;20056;-70
2023/04/21 03:43:37;;;;;;;29.13;14.73;;;;;;;9.07;100.00;94340.31;10408022;28;20032;-71
2023/04/21 03:48:37;;;;;;;40.38;16.58;;;;;;;8.98;100.00;94345.41;10426059;28;20033;-71
2023/04/21 03:53:38;;;;;;;29.23;16.02;;;;;;;8.91;100.00;94344.09;10421888;28;20503;-70
2023/04/21 03:58:38;;;;;;;28.60;14.95;;;;;;;8.85;100.00;94360.19;10425070;28;20527;-70
2023/04/21 04:03:39;;;;;;;31.20;15.23;;;;;;;8.82;100.00;94354.53;10406926;28;20111;-70
2023/04/21 04:08:39;;;;;;;35.42;15.70;;;;;;;8.85;100.00;94357.50;10406872;28;20048;-71
2023/04/21 04:13:39;;;;;;;26.83;12.30;;;;;;;8.92;100.00;94361.75;10424637;28;20071;-70
2023/04/21 04:18:40;;;;;;;22.30;10.50;;;;;;;9.12;100.00;94369.75;10423870;28;21509;-71
2023/04/21 04:23:41;;;;;;;18.75;9.85;;;;;;;9.26;100.00;94375.34;10417041;28;20040;-70
2023/04/21 04:28:41;;;;;;;19.38;9.63;;;;;;;9.53;100.00;94383.03;10418746;28;20441;-69
2023/04/21 04:33:47;;;;;;;20.20;11.55;;;;;;;9.70;100.00;94377.31;10421569;28;20470;-77
2023/04/21 04:38:48;;;;;;;18.90;10.48;;;;;;;9.84;100.00;94380.19;10420808;28;20024;-71
2023/04/21 04:43:48;;;;;;;22.77;11.27;;;;;;;10.05;100.00;94386.25;10422291;28;20021;-69
2023/04/21 04:48:49;;;;;;;17.88;10.73;;;;;;;10.39;100.00;94380.13;10418932;28;20025;-68
2023/04/21 04:53:49;;;;;;;20.35;9.93;;;;;;;10.71;100.00;94392.22;10421060;28;20083;-70
2023/04/21 04:58:50;;;;;;;26.63;10.88;;;;;;;10.92;100.00;94392.03;10408211;28;20029;-70
2023/04/21 05:03:50;;;;;;;18.42;10.73;;;;;;;11.20;100.00;94393.09;10420688;28;20025;-70
2023/04/21 05:08:51;;;;;;;17.70;10.57;;;;;;;11.46;100.00;94390.16;10423343;28;20021;-69
2023/04/21 05:13:51;;;;;;;42.10;16.40;;;;;;;11.83;100.00;94390.50;10409834;28;20030;-69
2023/04/21 05:18:54;;;;;;;25.67;13.23;;;;;;;12.50;100.00;94394.97;10418093;28;20881;-68
2023/04/21 05:23:56;;;;;;;16.80;9.43;;;;;;;13.53;100.00;94398.63;10411837;28;20263;-68
2023/04/21 05:28:57;;;;;;;24.95;9.48;;;;;;;14.61;100.00;94388.19;10419964;28;20885;-69
2023/04/21 05:33:58;;;;;;;21.23;9.70;;;;;;;14.97;100.00;94384.66;10399948;28;20031;-69
2023/04/21 05:38:58;;;;;;;15.73;9.23;;;;;;;15.71;97.03;94388.63;10405075;28;20041;-69
2023/04/21 05:43:59;;;;;;;16.65;6.55;;;;;;;16.51;88.23;94383.06;10409671;28;20025;-68
2023/04/21 05:49:01;;;;;;;21.30;12.32;;;;;;;17.08;90.10;94390.22;10430060;28;20033;-70
2023/04/21 05:54:01;;;;;;;10.93;6.88;;;;;;;17.11;77.09;94386.06;10430056;28;20356;-69
2023/04/21 05:59:02;;;;;;;18.58;6.82;;;;;;;17.14;75.97;94379.97;10412326;28;20032;-69
2023/04/21 06:04:03;;;;;;;12.18;7.13;;;;;;;17.96;69.64;94375.50;10413345;28;20511;-69
2023/04/21 06:09:04;;;;;;;9.50;6.53;;;;;;;17.49;68.81;94374.44;10437427;28;20040;-69
2023/04/21 06:14:04;;;;;;;11.77;6.65;;;;;;;17.65;69.87;94371.16;10429386;28;20043;-69
2023/04/21 06:19:05;;;;;;;10.97;6.20;;;;;;;17.24;73.93;94374.19;10428841;28;20049;-69
2023/04/21 06:24:06;;;;;;;12.07;6.53;;;;;;;17.55;78.05;94377.78;10429338;28;20501;-69
2023/04/21 06:29:06;;;;;;;12.70;6.50;;;;;;;18.90;63.43;94364.25;10428835;28;20069;-68
2023/04/21 06:34:06;;;;;;;15.52;6.05;;;;;;;19.70;62.46;94364.19;10427992;28;20033;-68
2023/04/21 06:39:07;;;;;;;12.18;5.95;;;;;;;20.28;55.95;94353.94;10428922;28;20088;-70
2023/04/21 06:44:12;;;;;;;10.00;5.87;;;;;;;20.68;52.43;94357.88;10428645;28;20079;-70
2023/04/21 06:49:13;;;;;;;8.98;5.78;;;;;;;21.00;52.39;94361.47;10431982;28;20275;-70
2023/04/21 06:54:13;;;;;;;7.88;5.40;;;;;;;21.85;48.08;94352.28;10409779;28;20036;-69
2023/04/21 06:59:14;;;;;;;12.15;6.15;;;;;;;22.06;48.01;94357.50;10427501;28;20767;-70
2023/04/21 07:04:15;;;;;;;8.38;5.28;;;;;;;22.68;46.28;94341.25;10427194;28;20439;-69
2023/04/21 07:09:15;;;;;;;13.27;5.68;;;;;;;22.88;45.57;94349.47;10428091;28;20056;-70
2023/04/21 07:14:16;;;;;;;7.45;5.30;;;;;;;23.41;44.11;94345.38;10442105;28;20033;-70
2023/04/21 07:19:16;;;;;;;9.17;5.17;;;;;;;24.56;41.31;94336.97;10426812;28;20488;-69
2023/04/21 07:24:17;;;;;;;16.55;5.93;;;;;;;24.72;41.79;94342.28;10427052;28;20365;-69
2023/04/21 07:29:17;;;;;;;32.87;5.97;;;;;;;23.72;41.60;94334.16;10426639;28;20112;-69
2023/04/21 07:34:17;;;;;;;6.70;5.20;;;;;;;22.90;44.74;94344.44;10426274;28;20091;-69
2023/04/21 07:39:18;;;;;;;12.83;6.33;;;;;;;21.73;45.41;94344.22;10426624;28;20267;-69
2023/04/21 07:44:18;;;;;;;9.57;5.32;;;;;;;18.43;59.52;94340.81;10425960;28;20340;-69
2023/04/21 07:49:19;;;;;;;15.57;6.53;;;;;;;19.03;61.26;94347.97;10425911;28;20037;-70
2023/04/21 07:54:19;;;;;;;7.40;5.00;;;;;;;21.36;50.46;94341.69;10424939;28;20029;-70
2023/04/21 07:59:20;;;;;;;12.00;5.53;;;;;;;22.74;47.12;94341.75;10425993;28;20027;-70
2023/04/21 08:04:20;;;;;;;15.00;6.07;;;;;;;19.70;52.57;94356.81;10424758;28;20086;-69
2023/04/21 08:09:21;;;;;;;8.73;5.03;;;;;;;19.25;54.74;94353.00;10425352;28;20431;-69
2023/04/21 08:14:21;;;;;;;7.27;4.87;;;;;;;19.69;53.93;94336.16;10406785;28;20345;-69
2023/04/21 08:19:21;;;;;;;13.73;5.80;;;;;;;19.47;57.42;94334.66;10424605;28;20306;-69
2023/04/21 08:24:22;;;;;;;10.27;5.28;;;;;;;20.91;52.08;94341.69;10422776;28;20029;-69
2023/04/21 08:29:22;;;;;;;11.23;5.32;;;;;;;18.96;55.26;94343.06;10424893;28;20037;-69
2023/04/21 08:34:23;;;;;;;11.05;5.13;;;;;;;19.78;53.19;94341.47;10424737;28;20116;-68
2023/04/21 08:39:23;;;;;;;6.28;4.35;;;;;;;22.80;48.35;94340.31;10424272;28;20033;-69
2023/04/21 08:44:25;;;;;;;8.60;4.05;;;;;;;23.52;42.03;94316.19;10424803;28;20029;-68
2023/04/21 08:49:29;;;;;;;10.02;4.10;;;;;;;22.43;44.41;94329.78;10424358;28;20456;-69
2023/04/21 08:54:29;;;;;;;5.85;4.38;;;;;;;21.77;45.51;94323.19;10423688;28;20032;-70
2023/04/21 08:59:31;;;;;;;8.98;4.78;;;;;;;20.28;47.94;94331.34;10423889;28;20035;-69
2023/04/21 09:04:31;;;;;;;12.20;6.03;;;;;;;19.93;51.39;94315.47;10424183;28;20039;-69
2023/04/21 09:09:32;;;;;;;5.88;3.88;;;;;;;22.76;46.88;94314.81;10423490;28;20029;-69
2023/04/21 09:14:33;;;;;;;6.28;3.78;;;;;;;23.51;43.97;94298.94;10424003;28;20120;-68
2023/04/21 09:19:34;;;;;;;15.95;8.57;;;;;;;23.24;45.27;94300.81;10431677;28;20053;-68
2023/04/21 09:24:34;;;;;;;6.60;4.32;;;;;;;24.14;42.16;94285.81;10430955;28;20040;-69
2023/04/21 09:29:35;;;;;;;12.55;4.93;;;;;;;23.48;42.58;94283.19;10431359;28;20037;-69
2023/04/21 09:34:41;;;;;;;4.65;3.60;;;;;;;20.99;46.06;94286.13;10431181;28;20112;-70
2023/04/21 09:39:45;;;;;;;8.80;3.88;;;;;;;19.07;50.80;94288.97;10431026;28;20048;-69
2023/04/21 09:44:46;;;;;;;11.48;4.30;;;;;;;19.52;53.00;94290.03;10430866;28;20794;-70
2023/04/21 09:49:51;;;;;;;8.03;4.67;;;;;;;20.99;51.78;94290.81;10430129;28;20037;-70
2023/04/21 09:54:59;;;;;;;5.18;3.33;;;;;;;22.59;42.11;94280.44;10430315;28;20298;-70
2023/04/21 10:00:04;;;;;;;6.15;3.40;;;;;;;22.26;42.97;94275.41;10429789;28;20460;-70
2023/04/21 10:05:06;;;;;;;6.40;3.85;;;;;;;21.97;43.08;94272.84;10433117;28;20754;-69
2023/04/21 10:10:12;;;;;;;11.65;5.00;;;;;;;20.85;45.16;94280.28;10428924;28;20028;-70
2023/04/21 10:15:33;;;;;;;12.82;3.60;;;;;;;19.47;48.45;94261.06;10427337;28;20040;-70
2023/04/21 10:21:00;;;;;;;14.77;4.13;;;;;;;21.73;46.68;94265.69;10410723;28;20124;-70
2023/04/21 10:26:25;;;;;;;7.40;3.58;;;;;;;22.28;43.88;94251.19;10426935;28;20028;-69
2023/04/21 10:31:37;;;;;;;8.07;4.40;;;;;;;21.66;44.21;94260.81;10427917;28;20033;-70
2023/04/21 10:36:42;;;;;;;17.50;5.50;;;;;;;21.62;46.10;94267.38;10428283;28;20063;-70
2023/04/21 10:41:45;;;;;;;10.45;4.18;;;;;;;21.67;47.64;94264.34;10426755;28;20024;-70
2023/04/21 10:46:47;;;;;;;7.43;5.05;;;;;;;20.89;50.29;94264.78;10426624;28;20029;-69
2023/04/21 10:51:56;;;;;;;8.60;5.30;;;;;;;20.55;50.80;94263.44;10422394;28;20111;-69
2023/04/21 10:56:58;;;;;;;11.32;4.30;;;;;;;20.95;48.59;94270.78;10427914;28;20415;-70
2023/04/21 11:01:58;;;;;;;6.20;3.60;;;;;;;20.07;50.02;94269.53;10427643;28;20688;-70
2023/04/21 11:07:20;;;;;;;10.23;3.90;;;;;;;19.21;53.53;94266.84;10427693;28;20032;-69
2023/04/21 11:12:20;;;;;;;11.75;4.25;;;;;;;18.45;52.79;94262.34;10426742;28;20616;-70
2023/04/21 11:17:22;;;;;;;12.18;4.40;;;;;;;18.40;53.29;94251.66;10447185;28;20044;-69
2023/04/21 11:22:25;;;;;;;10.00;4.10;;;;;;;18.54;57.90;94259.53;10426813;28;20020;-70
2023/04/21 11:27:27;;;;;;;11.18;4.72;;;;;;;18.55;58.77;94263.84;10426380;28;20358;-73
2023/04/21 11:32:28;;;;;;;6.18;4.75;;;;;;;18.38;62.65;94261.31;10408153;28;20471;-74
2023/04/21 11:37:29;;;;;;;6.78;4.05;;;;;;;18.98;58.56;94255.56;10400174;28;20709;-73
2023/04/21 11:42:30;;;;;;;10.20;5.38;;;;;;;19.39;55.44;94260.03;10411690;28;20502;-75
2023/04/21 11:47:31;;;;;;;8.45;4.60;;;;;;;19.39;54.55;94254.59;10426034;28;20513;-74
2023/04/21 11:52:34;;;;;;;10.82;4.75;;;;;;;19.12;60.51;94256.06;10425908;28;20877;-73
2023/04/21 11:57:35;;;;;;;7.97;4.60;;;;;;;18.52;63.34;94259.09;10420241;28;20026;-72
2023/04/21 12:02:36;;;;;;;5.90;3.88;;;;;;;18.35;60.90;94262.78;10426128;28;20098;-74
2023/04/21 12:07:47;;;;;;;13.90;4.30;;;;;;;18.32;62.04;94257.19;10425035;28;20112;-73
2023/04/21 12:12:48;;;;;;;6.10;3.60;;;;;;;18.25;61.98;94258.53;10417036;28;20425;-71
2023/04/21 12:17:50;;;;;;;7.72;3.38;;;;;;;18.41;54.65;94255.97;10397194;28;20041;-71
2023/04/21 12:22:51;;;;;;;11.07;3.33;;;;;;;18.18;56.30;94266.44;10403473;28;20020;-69
2023/04/21 12:27:53;;;;;;;4.97;3.58;;;;;;;18.02;56.83;94263.50;10399300;28;20037;-70
2023/04/21 12:32:54;;;;;;;6.97;3.25;;;;;;;17.97;59.02;94268.34;10390640;28;20083;-70
2023/04/21 12:37:54;;;;;;;5.43;3.50;;;;;;;17.84;58.74;94267.47;10410951;28;20030;-70
2023/04/21 12:42:55;;;;;;;8.05;3.78;;;;;;;18.17;61.95;94261.31;10399645;28;20029;-68
2023/04/21 12:47:57;;;;;;;12.17;3.27;;;;;;;18.60;54.10;94252.75;10397678;28;20088;-69
2023/04/21 12:52:58;;;;;;;10.38;4.03;;;;;;;18.94;52.60;94250.81;10404426;28;20288;-71
2023/04/21 12:57:58;;;;;;;6.45;3.40;;;;;;;19.26;51.31;94245.63;10407227;28;20079;-69
2023/04/21 13:02:59;;;;;;;6.97;3.88;;;;;;;19.15;50.54;94244.50;10410755;28;20515;-70
2023/04/21 13:07:59;;;;;;;6.70;4.13;;;;;;;18.86;57.22;94243.50;10404737;28;20030;-70
2023/04/21 13:13:00;;;;;;;10.27;3.70;;;;;;;19.13;55.51;94239.38;10396758;28;20033;-71
2023/04/21 13:18:00;;;;;;;8.85;4.10;;;;;;;19.02;52.22;94242.88;10405606;28;20543;-69
2023/04/21 13:23:01;;;;;;;6.63;3.53;;;;;;;18.82;50.27;94239.88;10404135;28;20025;-70
2023/04/21 13:28:01;;;;;;;7.65;3.88;;;;;;;18.82;50.49;94239.09;10398018;28;20037;-75
2023/04/21 13:33:02;;;;;;;10.10;4.60;;;;;;;18.94;50.64;94244.59;10408178;28;20041;-78
2023/04/21 13:38:03;;;;;;;7.80;4.20;;;;;;;19.03;53.73;94239.81;10409932;28;20805;-70
2023/04/21 13:43:04;;;;;;;7.18;3.65;;;;;;;19.18;48.12;94232.91;10402801;28;20052;-70
2023/04/21 13:48:04;;;;;;;9.57;4.00;;;;;;;19.35;47.47;94231.88;10409566;28;20037;-69
2023/04/21 13:53:05;;;;;;;7.85;3.88;;;;;;;19.44;47.48;94229.84;10410094;28;20381;-69
2023/04/21 13:58:05;;;;;;;6.65;3.97;;;;;;;19.48;47.49;94224.50;10403181;28;20033;-70
2023/04/21 14:03:06;;;;;;;7.28;3.80;;;;;;;19.53;47.20;94231.66;10407037;28;20035;-70
2023/04/21 14:08:06;;;;;;;15.60;4.60;;;;;;;19.45;47.45;94230.63;10403625;28;20402;-69
2023/04/21 14:13:07;;;;;;;7.68;4.05;;;;;;;19.17;48.94;94220.41;10401320;28;20040;-72
2023/04/21 14:18:07;;;;;;;8.57;4.82;;;;;;;19.24;48.20;94215.22;10402822;28;20053;-70
2023/04/21 14:23:08;;;;;;;20.27;6.75;;;;;;;19.16;47.45;94207.13;10395432;28;20535;-70
2023/04/21 14:28:08;;;;;;;9.67;4.57;;;;;;;19.23;48.31;94201.94;10415465;28;20090;-70
2023/04/21 14:33:09;;;;;;;11.70;5.10;;;;;;;18.99;46.43;94208.16;10405195;28;20318;-69
2023/04/21 14:38:09;;;;;;;10.95;4.90;;;;;;;18.76;48.88;94200.41;10413720;28;20683;-69
2023/04/21 14:43:10;;;;;;;6.85;4.07;;;;;;;18.53;48.34;94200.00;10428350;28;20078;-69
2023/04/21 14:48:12;;;;;;;16.58;5.10;;;;;;;18.14;48.73;94202.16;10427512;28;20025;-69
2023/04/21 14:53:13;;;;;;;7.88;4.78;;;;;;;17.82;52.66;94202.56;10427398;28;20090;-69
2023/04/21 14:58:13;;;;;;;11.20;5.00;;;;;;;17.74;53.14;94208.88;10428308;28;20082;-69
2023/04/21 15:03:14;;;;;;;10.73;4.53;;;;;;;17.70;54.18;94208.72;10428196;28;20128;-70
2023/04/21 15:08:17;;;;;;;8.65;5.22;;;;;;;17.54;55.95;94203.09;10426711;28;20028;-70
2023/04/21 15:13:17;;;;;;;8.27;5.57;;;;;;;17.49;56.43;94218.78;10426878;28;20025;-70
2023/04/21 15:18:19;;;;;;;8.70;4.93;;;;;;;17.22;56.58;94216.22;10426650;28;20044;-70
2023/04/21 15:23:20;;;;;;;12.02;4.88;;;;;;;17.05;60.91;94224.44;10440775;28;20104;-69
2023/04/21 15:28:20;;;;;;;16.08;4.50;;;;;;;16.86;72.63;94225.63;10426758;28;20483;-69
2023/04/21 15:33:21;;;;;;;10.00;4.28;;;;;;;16.75;71.85;94227.09;10425973;28;20087;-69
2023/04/21 15:38:21;;;;;;;9.77;4.93;;;;;;;16.72;77.88;94225.03;10426262;28;20104;-70
2023/04/21 15:43:22;;;;;;;9.25;4.22;;;;;;;16.63;74.18;94225.03;10425785;28;20649;-70
2023/04/21 15:48:23;;;;;;;10.82;5.40;;;;;;;16.51;67.41;94230.38;10426368;28;20020;-69
2023/04/21 15:53:23;;;;;;;11.45;5.57;;;;;;;16.50;64.99;94236.91;10407809;28;20094;-69
2023/04/21 15:58:24;;;;;;;7.18;4.65;;;;;;;16.41;67.56;94231.50;10396549;28;20025;-69
2023/04/21 16:03:25;;;;;;;8.80;4.82;;;;;;;16.50;66.18;94239.63;10401209;28;20055;-68
2023/04/21 16:08:26;;;;;;;10.05;4.75;;;;;;;16.62;66.74;94238.94;10424869;28;20032;-70
2023/04/21 16:13:28;;;;;;;5.65;4.00;;;;;;;16.61;65.97;94238.16;10422881;28;20025;-70
2023/04/21 16:18:28;;;;;;;8.77;3.90;;;;;;;16.53;71.66;94228.91;10425192;28;20457;-69
2023/04/21 16:23:30;;;;;;;3.73;2.67;;;;;;;16.37;63.63;94230.56;10424993;28;20046;-69
2023/04/21 16:28:30;;;;;;;10.38;3.58;;;;;;;16.15;63.96;94248.59;10406892;28;20766;-69
2023/04/21 16:33:31;;;;;;;4.95;2.97;;;;;;;16.05;65.37;94246.22;10413721;28;20033;-69
2023/04/21 16:38:31;;;;;;;3.90;3.15;;;;;;;15.88;67.64;94249.75;10412769;28;20494;-71
2023/04/21 16:43:32;;;;;;;7.63;3.05;;;;;;;15.57;69.68;94247.91;10425060;28;20059;-70
2023/04/21 16:48:32;;;;;;;7.53;3.50;;;;;;;15.33;73.53;94251.84;10425167;28;20420;-71
2023/04/21 16:53:33;;;;;;;7.35;3.92;;;;;;;15.13;76.51;94250.53;10424302;28;20091;-69
2023/04/21 16:58:35;;;;;;;10.60;4.05;;;;;;;14.92;80.71;94268.44;10424488;28;20025;-69
2023/04/21 17:03:36;;;;;;;7.75;4.05;;;;;;;14.81;84.09;94263.28;10414622;28;20104;-71
2023/04/21 17:08:36;;;;;;;7.18;4.03;;;;;;;14.66;86.55;94258.28;10388989;28;20025;-69
2023/04/21 17:13:38;;;;;;;7.85;4.35;;;;;;;14.51;90.54;94265.66;10421543;28;20455;-69
2023/04/21 17:18:38;;;;;;;8.90;4.53;;;;;;;14.39;91.82;94257.31;10423784;28;20132;-70
2023/04/21 17:23:38;;;;;;;13.67;5.33;;;;;;;14.18;96.45;94262.44;10424123;28;20028;-69
2023/04/21 17:28:39;;;;;;;11.50;6.70;;;;;;;14.10;100.00;94265.88;10423446;28;20021;-69
2023/04/21 17:33:40;;;;;;;14.27;4.93;;;;;;;13.84;100.00;94277.25;10409115;28;20474;-69
2023/04/21 17:38:41;;;;;;;7.13;4.57;;;;;;;13.77;100.00;94276.88;10433299;28;20025;-70
2023/04/21 17:43:42;;;;;;;12.18;5.97;;;;;;;13.48;100.00;94286.94;10428606;28;20021;-70
2023/04/21 17:48:42;;;;;;;8.38;5.63;;;;;;;13.35;100.00;94298.53;10440472;28;20028;-70
2023/04/21 17:53:43;;;;;;;12.13;5.38;;;;;;;13.36;100.00;94302.84;10436229;28;20468;-70
2023/04/21 17:58:43;;;;;;;6.82;5.28;;;;;;;13.32;100.00;94315.31;10395188;28;20071;-73
2023/04/21 18:03:44;;;;;;;14.60;5.88;;;;;;;13.23;100.00;94311.69;10430310;28;20021;-73
2023/04/21 18:08:44;;;;;;;11.02;5.22;;;;;;;13.22;100.00;94318.22;10434606;28;20021;-73
2023/04/21 18:13:45;;;;;;;13.23;6.40;;;;;;;13.17;100.00;94321.81;10439279;28;20024;-73
2023/04/21 18:18:46;;;;;;;18.42;6.72;;;;;;;13.10;100.00;94333.00;10442861;28;20131;-75
2023/04/21 18:23:47;;;;;;;14.57;4.95;;;;;;;13.03;100.00;94343.38;10431528;28;20123;-73
2023/04/21 18:28:47;;;;;;;10.85;5.38;;;;;;;12.82;100.00;94359.94;10430721;28;20116;-71
2023/04/21 18:33:47;;;;;;;16.60;5.07;;;;;;;12.72;100.00;94360.09;10415441;28;20029;-71
2023/04/21 18:38:48;;;;;;;9.40;6.17;;;;;;;12.60;100.00;94367.84;10413771;28;20040;-70
2023/04/21 18:43:49;;;;;;;7.03;5.10;;;;;;;12.53;100.00;94356.66;10424635;28;20438;-67
2023/04/21 18:48:49;;;;;;;15.07;5.88;;;;;;;12.50;100.00;94362.63;10422677;28;20059;-68
2023/04/21 18:53:49;;;;;;;19.05;6.90;;;;;;;12.31;100.00;94366.16;10414141;28;20082;-69
2023/04/21 18:58:50;;;;;;;16.97;7.83;;;;;;;12.19;100.00;94373.88;10428795;28;20020;-68
2023/04/21 19:03:50;;;;;;;16.23;7.40;;;;;;;11.98;100.00;94376.06;10414430;28;20036;-67
2023/04/21 19:08:51;;;;;;;12.07;6.23;;;;;;;11.90;100.00;94372.09;10401169;28;20279;-67
2023/04/21 19:13:52;;;;;;;14.07;6.43;;;;;;;11.82;100.00;94372.75;10420049;28;20286;-67
2023/04/21 19:18:53;;;;;;;10.93;7.00;;;;;;;11.78;100.00;94372.53;10419972;28;20468;-67
2023/04/21 19:23:53;;;;;;;10.32;6.63;;;;;;;11.82;100.00;94378.13;10398506;28;20616;-67
2023/04/21 19:28:53;;;;;;;9.30;5.43;;;;;;;11.68;100.00;94378.03;10435373;28;20036;-69
2023/04/21 19:39:06;;;;;;;10.10;5.82;;;;;;;11.70;100.00;94379.34;10427562;22;20037;-69
2023/04/21 19:44:06;;;;;;;10.95;6.15;;;;;;;11.48;100.00;94381.78;10395984;28;20041;-69
2023/04/21 19:49:08;;;;;;;12.38;8.02;;;;;;;11.32;100.00;94379.28;10410334;28;20542;-69
2023/04/21 19:54:11;;;;;;;13.82;7.15;;;;;;;11.13;100.00;94381.09;10401595;28;20043;-69
2023/04/21 19:59:11;;;;;;;12.63;7.13;;;;;;;10.89;100.00;94381.88;10416780;28;20028;-69
2023/04/21 20:04:12;;;;;;;14.43;7.32;;;;;;;10.62;100.00;94377.00;10410177;28;20118;-68
2023/04/21 20:09:12;;;;;;;14.38;7.32;;;;;;;10.23;100.00;94387.47;10383601;28;20033;-69
2023/04/21 20:14:13;;;;;;;12.10;7.05;;;;;;;10.15;100.00;94389.94;10398050;28;20030;-69
2023/04/21 20:19:15;;;;;;;15.60;7.95;;;;;;;10.19;100.00;94399.06;10414904;28;20072;-69
2023/04/21 20:24:16;;;;;;;9.07;5.28;;;;;;;10.30;100.00;94397.91;10423596;28;20098;-70
2023/04/21 20:29:16;;;;;;;9.45;5.40;;;;;;;10.29;100.00;94400.88;10395220;28;20418;-70
2023/04/21 20:34:17;;;;;;;8.45;5.25;;;;;;;10.21;100.00;94408.44;10418014;28;20515;-70
2023/04/21 20:39:17;;;;;;;13.48;5.82;;;;;;;10.24;100.00;94413.25;10400662;28;20488;-70
2023/04/21 20:44:21;;;;;;;12.18;5.70;;;;;;;10.20;100.00;94408.69;10401202;28;20048;-69
2023/04/21 20:49:21;;;;;;;10.38;5.68;;;;;;;10.12;100.00;94411.97;10400508;28;20036;-70
2023/04/21 20:54:22;;;;;;;12.50;5.90;;;;;;;10.22;100.00;94412.72;10417987;28;20029;-68
2023/04/21 20:59:22;;;;;;;9.60;5.63;;;;;;;10.34;100.00;94404.34;10418296;28;20037;-70
2023/04/21 21:04:23;;;;;;;12.52;5.90;;;;;;;10.51;100.00;94406.63;10417135;28;20391;-70
2023/04/21 21:09:23;;;;;;;9.15;5.80;;;;;;;10.53;100.00;94417.09;10418915;28;20102;-70
2023/04/21 21:14:24;;;;;;;18.48;6.78;;;;;;;10.59;100.00;94421.34;10426178;28;20029;-70
2023/04/21 21:19:24;;;;;;;13.10;7.28;;;;;;;10.70;100.00;94420.22;10427966;28;20024;-67
2023/04/21 21:24:25;;;;;;;11.57;5.93;;;;;;;10.76;100.00;94429.81;10409972;28;20509;-69
2023/04/21 21:29:25;;;;;;;10.63;6.10;;;;;;;10.76;100.00;94424.44;10427356;28;20279;-69
2023/04/21 21:34:26;;;;;;;10.95;6.78;;;;;;;10.55;100.00;94431.88;10426576;28;20030;-68
2023/04/21 21:39:26;;;;;;;9.53;6.30;;;;;;;10.36;100.00;94439.00;10426691;28;20110;-69
2023/04/21 21:44:27;;;;;;;8.63;5.47;;;;;;;10.18;100.00;94433.16;10413450;28;20259;-69
2023/04/21 21:49:28;;;;;;;13.60;5.75;;;;;;;9.88;100.00;94444.88;10407898;28;20033;-70
2023/04/21 21:54:28;;;;;;;8.30;5.57;;;;;;;9.65;100.00;94440.94;10408852;28;20382;-68
2023/04/21 21:59:29;;;;;;;10.55;5.25;;;;;;;9.56;100.00;94438.81;10426166;28;20424;-68
2023/04/21 22:04:30;;;;;;;10.25;6.82;;;;;;;9.37;100.00;94438.59;10426050;28;20017;-69
2023/04/21 22:09:31;;;;;;;9.80;6.40;;;;;;;9.37;100.00;94440.47;10407903;28;20447;-69
2023/04/21 22:14:32;;;;;;;13.82;7.22;;;;;;;9.34;100.00;94447.19;10424314;28;20493;-68
2023/04/21 22:19:33;;;;;;;11.35;6.68;;;;;;;9.38;100.00;94455.50;10422988;28;20044;-69
2023/04/21 22:24:34;;;;;;;10.25;6.88;;;;;;;9.40;100.00;94456.84;10421489;28;20053;-68
2023/04/21 22:29:35;;;;;;;13.00;7.50;;;;;;;9.47;100.00;94458.44;10424163;28;20033;-68
2023/04/21 22:34:35;;;;;;;11.85;6.95;;;;;;;9.48;100.00;94460.03;10424983;28;20122;-69
2023/04/21 22:39:37;;;;;;;17.05;7.72;;;;;;;9.29;100.00;94460.59;10407357;28;20051;-69
2023/04/21 22:44:37;;;;;;;9.95;6.32;;;;;;;9.25;100.00;94464.91;10428036;28;20132;-69
2023/04/21 22:49:38;;;;;;;14.55;7.10;;;;;;;9.27;100.00;94468.13;10424548;28;20029;-69
2023/04/21 22:54:39;;;;;;;9.63;6.55;;;;;;;9.17;100.00;94458.22;10424736;28;20040;-69
2023/04/21 22:59:40;;;;;;;12.15;7.30;;;;;;;9.18;100.00;94457.16;10424025;28;20538;-68
2023/04/21 23:04:40;;;;;;;13.98;8.25;;;;;;;9.11;100.00;94466.53;10423731;28;20402;-69
2023/04/21 23:09:41;;;;;;;13.20;7.40;;;;;;;9.31;100.00;94460.34;10424225;28;20451;-69